Time;durP1;ratioP1;P1;durP2;ratioP2;P2;SDS_P1;SDS_P2;PMS_P1;PMS_P2;Temp;Humidity;BMP_temperature;BMP_pressure;BME280_temperature;BME280_humidity;BME280_pressure;Samples;Min_cycle;Max_cycle;Signal;HPM_P1;HPM_P2
2023/02/12 00:00:43;;;;;;;;;;;3.00;69.70;;;;;;4997918;28;19925;-83
2023/02/12 00:03:08;;;;;;;;;;;3.00;69.70;;;;;;4997669;28;19971;-83
2023/02/12 00:05:36;;;;;;;;;;;2.90;69.70;;;;;;4992208;28;19909;-82
2023/02/12 00:08:02;;;;;;;;;;;2.90;70.00;;;;;;4976385;28;19918;-85
2023/02/12 00:10:27;;;;;;;;;;;2.80;70.10;;;;;;4990428;28;19972;-84
2023/02/12 00:12:53;;;;;;;;;;;2.80;70.20;;;;;;4993968;28;19922;-83
2023/02/12 00:15:19;;;;;;;;;;;2.70;70.20;;;;;;4991601;28;19964;-81
2023/02/12 00:17:45;;;;;;;;;;;2.80;70.40;;;;;;4967277;28;19928;-83
2023/02/12 00:20:10;;;;;;;;;;;2.70;70.50;;;;;;4992620;28;19913;-83
2023/02/12 00:22:36;;;;;;;;;;;2.70;70.60;;;;;;4996252;28;19960;-82
2023/02/12 00:25:02;;;;;;;;;;;2.60;70.90;;;;;;4985494;28;19918;-83
2023/02/12 00:27:27;;;;;;;;;;;2.50;71.10;;;;;;4980022;28;19913;-85
2023/02/12 00:29:53;;;;;;;;;;;2.50;71.10;;;;;;4987488;28;20563;-83
2023/02/12 00:32:18;;;;;;;;;;;2.60;71.10;;;;;;4990999;28;20024;-83
2023/02/12 00:34:47;;;;;;;;;;;2.60;70.90;;;;;;5000581;28;20000;-82
2023/02/12 00:37:13;;;;;;;;;;;2.60;70.70;;;;;;4994704;28;20059;-82
2023/02/12 00:39:39;;;;;;;;;;;2.50;71.00;;;;;;4989611;28;20748;-81
2023/02/12 00:42:05;;;;;;;;;;;2.40;71.30;;;;;;4994545;28;19933;-81
2023/02/12 00:44:30;;;;;;;;;;;2.30;72.20;;;;;;4994146;28;20389;-82
2023/02/12 00:46:56;;;;;;;;;;;2.20;72.60;;;;;;4990878;28;19945;-82
2023/02/12 00:49:22;;;;;;;;;;;2.20;72.60;;;;;;4994859;28;19914;-82
2023/02/12 00:51:48;;;;;;;;;;;2.10;72.80;;;;;;4990178;28;20008;-83
2023/02/12 00:54:14;;;;;;;;;;;2.20;72.40;;;;;;4992309;28;20305;-85
2023/02/12 00:56:39;;;;;;;;;;;2.20;72.50;;;;;;4985736;28;20440;-81
2023/02/12 00:59:05;;;;;;;;;;;2.20;72.50;;;;;;4989381;28;19945;-83
2023/02/12 01:01:30;;;;;;;;;;;2.20;72.50;;;;;;5000145;28;20343;-83
2023/02/12 01:03:56;;;;;;;;;;;2.10;72.80;;;;;;4992800;28;20179;-86
2023/02/12 01:06:21;;;;;;;;;;;2.20;72.60;;;;;;5003455;28;20433;-83
2023/02/12 01:08:51;;;;;;;;;;;2.20;72.40;;;;;;4976346;28;20010;-82
2023/02/12 01:11:16;;;;;;;;;;;2.30;71.90;;;;;;4992666;28;20377;-82
2023/02/12 01:13:42;;;;;;;;;;;2.30;71.10;;;;;;4997131;28;19932;-83
2023/02/12 01:16:12;;;;;;;;;;;2.40;70.40;;;;;;4995840;28;19920;-85
2023/02/12 01:18:38;;;;;;;;;;;2.40;70.50;;;;;;4996266;28;19913;-83
2023/02/12 01:21:11;;;;;;;;;;;2.30;70.70;;;;;;4989630;28;20043;-85
2023/02/12 01:23:36;;;;;;;;;;;2.20;70.90;;;;;;4997044;28;19956;-82
2023/02/12 01:26:02;;;;;;;;;;;2.30;70.40;;;;;;4989514;28;20700;-83
2023/02/12 01:28:28;;;;;;;;;;;2.20;70.40;;;;;;4999976;28;19914;-83
2023/02/12 01:30:53;;;;;;;;;;;2.20;70.60;;;;;;4997885;28;20026;-82
2023/02/12 01:33:19;;;;;;;;;;;2.20;70.50;;;;;;4988886;28;19925;-83
2023/02/12 01:35:45;;;;;;;;;;;2.10;70.50;;;;;;4993886;28;19918;-83
2023/02/12 01:38:11;;;;;;;;;;;2.10;70.50;;;;;;4998311;28;19960;-83
2023/02/12 01:40:36;;;;;;;;;;;2.10;70.60;;;;;;4996958;28;19920;-81
2023/02/12 01:43:02;;;;;;;;;;;2.20;70.30;;;;;;5002792;28;19961;-83
2023/02/12 01:45:27;;;;;;;;;;;2.10;70.70;;;;;;5002411;28;20385;-82
2023/02/12 01:47:53;;;;;;;;;;;2.00;70.70;;;;;;5002269;28;19913;-83
2023/02/12 01:50:19;;;;;;;;;;;2.00;70.80;;;;;;4999838;28;19913;-83
2023/02/12 01:52:50;;;;;;;;;;;1.90;70.70;;;;;;4995105;28;21190;-82
2023/02/12 01:55:16;;;;;;;;;;;1.90;70.80;;;;;;4999555;28;19913;-82
2023/02/12 01:57:42;;;;;;;;;;;1.90;71.00;;;;;;4991955;28;20296;-83
2023/02/12 02:00:13;;;;;;;;;;;1.80;71.00;;;;;;4991278;28;19944;-82
2023/02/12 02:02:39;;;;;;;;;;;1.80;71.20;;;;;;4998210;28;19909;-83
2023/02/12 02:05:06;;;;;;;;;;;1.70;71.60;;;;;;4984470;28;19921;-82
2023/02/12 02:07:32;;;;;;;;;;;1.70;71.40;;;;;;4988721;28;19910;-83
2023/02/12 02:09:58;;;;;;;;;;;1.70;71.60;;;;;;4991693;28;19965;-83
2023/02/12 02:15:09;;;;;;;;;;;1.50;72.10;;;;;;4995134;28;19932;-83
2023/02/12 02:17:53;;;;;;;;;;;1.50;72.40;;;;;;4993888;28;20001;-82
2023/02/12 02:20:22;;;;;;;;;;;1.40;73.00;;;;;;4996204;28;19921;-82
2023/02/12 02:22:47;;;;;;;;;;;1.30;73.40;;;;;;4977920;28;19996;-83
2023/02/12 02:25:32;;;;;;;;;;;1.30;73.70;;;;;;4991176;28;19943;-82
2023/02/12 02:27:57;;;;;;;;;;;1.30;73.30;;;;;;4994623;28;19909;-82
2023/02/12 02:30:44;;;;;;;;;;;1.30;73.20;;;;;;4994850;28;19972;-83
2023/02/12 02:33:23;;;;;;;;;;;1.30;73.30;;;;;;4989859;28;19991;-83
2023/02/12 02:35:51;;;;;;;;;;;1.20;73.40;;;;;;4992115;28;20014;-83
2023/02/12 02:38:21;;;;;;;;;;;1.20;73.20;;;;;;4989142;28;19910;-84
2023/02/12 02:40:53;;;;;;;;;;;1.20;73.00;;;;;;5001958;28;19943;-83
2023/02/12 02:43:22;;;;;;;;;;;1.20;73.10;;;;;;4992410;28;19910;-83
2023/02/12 02:45:52;;;;;;;;;;;1.30;72.60;;;;;;4993671;28;19913;-83
2023/02/12 02:48:25;;;;;;;;;;;1.40;72.30;;;;;;4991101;28;19913;-83
2023/02/12 02:50:53;;;;;;;;;;;1.40;72.00;;;;;;4989647;28;19917;-83
2023/02/12 02:53:26;;;;;;;;;;;1.30;72.00;;;;;;4995332;28;20016;-83
2023/02/12 02:55:54;;;;;;;;;;;1.40;71.80;;;;;;4991788;28;20110;-81
2023/02/12 02:58:25;;;;;;;;;;;1.40;71.90;;;;;;4996426;28;19913;-80
2023/02/12 03:00:56;;;;;;;;;;;1.30;71.80;;;;;;4997595;28;19926;-80
2023/02/12 03:03:27;;;;;;;;;;;1.20;72.10;;;;;;4990235;28;19910;-81
2023/02/12 03:05:55;;;;;;;;;;;1.30;72.00;;;;;;4999025;28;20400;-81
2023/02/12 03:08:33;;;;;;;;;;;1.20;72.60;;;;;;4970520;28;19914;-82
2023/02/12 03:11:02;;;;;;;;;;;1.20;72.70;;;;;;4989553;28;19913;-82
2023/02/12 03:14:03;;;;;;;;;;;1.20;72.60;;;;;;4988730;28;19921;-83
2023/02/12 03:16:43;;;;;;;;;;;1.10;73.00;;;;;;4976022;28;19917;-83
2023/02/12 03:19:22;;;;;;;;;;;1.10;72.80;;;;;;4992339;28;19913;-82
2023/02/12 03:21:54;;;;;;;;;;;1.00;73.40;;;;;;4991986;28;19913;-83
2023/02/12 03:24:22;;;;;;;;;;;1.10;73.00;;;;;;4978148;28;20835;-85
2023/02/12 03:26:50;;;;;;;;;;;1.10;72.80;;;;;;4989506;28;19920;-83
2023/02/12 03:29:15;;;;;;;;;;;1.10;73.70;;;;;;4995885;28;19917;-83
2023/02/12 03:31:44;;;;;;;;;;;1.00;73.40;;;;;;4994313;28;19913;-83
2023/02/12 03:34:09;;;;;;;;;;;1.00;73.30;;;;;;4987503;28;19925;-83
2023/02/12 03:36:35;;;;;;;;;;;1.00;73.60;;;;;;4993051;28;19960;-82
2023/02/12 03:39:12;;;;;;;;;;;0.90;74.10;;;;;;4991348;28;19916;-83
2023/02/12 03:41:48;;;;;;;;;;;0.90;73.90;;;;;;4981243;28;19913;-83
2023/02/12 03:44:26;;;;;;;;;;;0.90;74.20;;;;;;4989535;28;20320;-83
2023/02/12 03:47:02;;;;;;;;;;;0.90;73.80;;;;;;4988648;28;19925;-80
2023/02/12 03:49:50;;;;;;;;;;;0.90;74.10;;;;;;4990337;28;19913;-81
2023/02/12 03:52:15;;;;;;;;;;;0.90;73.50;;;;;;4988164;28;19913;-81
2023/02/12 03:54:41;;;;;;;;;;;1.00;73.10;;;;;;4985593;28;19920;-79
2023/02/12 03:57:09;;;;;;;;;;;0.90;73.30;;;;;;4989426;28;19913;-81
2023/02/12 03:59:36;;;;;;;;;;;0.90;73.80;;;;;;4996726;28;19913;-81
2023/02/12 04:02:02;;;;;;;;;;;0.90;73.80;;;;;;4996582;28;19933;-81
2023/02/12 04:04:29;;;;;;;;;;;0.90;73.50;;;;;;4972511;28;20436;-82
2023/02/12 04:06:55;;;;;;;;;;;0.80;73.50;;;;;;4997835;28;19999;-81
2023/02/12 04:09:21;;;;;;;;;;;0.80;73.50;;;;;;4984346;28;20015;-81
2023/02/12 04:12:00;;;;;;;;;;;0.90;73.20;;;;;;4993047;28;19940;-81
2023/02/12 04:14:45;;;;;;;;;;;0.70;73.80;;;;;;4997093;28;19917;-82
2023/02/12 04:17:20;;;;;;;;;;;0.70;74.10;;;;;;4988799;28;19914;-81
2023/02/12 04:20:18;;;;;;;;;;;0.60;74.70;;;;;;4990647;28;19916;-82
2023/02/12 04:23:02;;;;;;;;;;;0.60;74.90;;;;;;4976388;28;19914;-82
2023/02/12 04:25:27;;;;;;;;;;;0.50;74.90;;;;;;4996991;28;20028;-83
2023/02/12 04:27:56;;;;;;;;;;;0.60;75.00;;;;;;4995175;28;19913;-83
2023/02/12 04:30:34;;;;;;;;;;;0.50;75.20;;;;;;4986014;28;19948;-83
2023/02/12 04:33:02;;;;;;;;;;;0.50;75.20;;;;;;4994140;28;19995;-82
2023/02/12 04:35:32;;;;;;;;;;;0.50;75.20;;;;;;4988265;28;19918;-82
2023/02/12 04:38:02;;;;;;;;;;;0.40;75.40;;;;;;4987936;28;19921;-82
2023/02/12 04:40:28;;;;;;;;;;;0.40;75.50;;;;;;4996649;28;19964;-83
2023/02/12 04:42:54;;;;;;;;;;;0.50;75.20;;;;;;4998212;28;19914;-82
2023/02/12 04:45:27;;;;;;;;;;;0.40;75.40;;;;;;4982214;28;20358;-82
2023/02/12 04:47:53;;;;;;;;;;;0.40;75.40;;;;;;4974041;28;19910;-82
2023/02/12 04:50:19;;;;;;;;;;;0.30;75.80;;;;;;4995939;28;19920;-84
2023/02/12 04:52:45;;;;;;;;;;;0.40;76.00;;;;;;4988968;28;20471;-83
2023/02/12 04:55:11;;;;;;;;;;;0.40;75.50;;;;;;4991325;28;19917;-83
2023/02/12 04:57:36;;;;;;;;;;;0.40;75.70;;;;;;5001958;28;19913;-84
2023/02/12 05:00:04;;;;;;;;;;;0.40;75.70;;;;;;4999428;28;20071;-83
2023/02/12 05:02:31;;;;;;;;;;;0.30;76.30;;;;;;4978093;28;19921;-88
2023/02/12 05:04:57;;;;;;;;;;;0.40;75.70;;;;;;4996219;28;19913;-83
2023/02/12 05:07:23;;;;;;;;;;;0.40;75.30;;;;;;4993147;28;19920;-84
2023/02/12 05:09:48;;;;;;;;;;;0.30;75.50;;;;;;5002519;28;20032;-81
2023/02/12 05:12:14;;;;;;;;;;;0.20;75.70;;;;;;4992964;28;19914;-83
2023/02/12 05:14:39;;;;;;;;;;;0.40;75.00;;;;;;4983478;28;20494;-82
2023/02/12 05:17:05;;;;;;;;;;;0.30;76.00;;;;;;4996100;28;19967;-83
2023/02/12 05:19:31;;;;;;;;;;;0.40;75.70;;;;;;4996748;28;19914;-82
2023/02/12 05:21:56;;;;;;;;;;;0.40;75.60;;;;;;5000841;28;19920;-83
2023/02/12 05:24:22;;;;;;;;;;;0.30;75.80;;;;;;4979740;28;19927;-83
2023/02/12 05:26:48;;;;;;;;;;;0.20;76.80;;;;;;5000105;28;20385;-83
2023/02/12 05:29:14;;;;;;;;;;;0.20;76.70;;;;;;4996798;28;19952;-85
2023/02/12 05:31:40;;;;;;;;;;;0.10;77.10;;;;;;4991119;28;20752;-84
2023/02/12 05:34:05;;;;;;;;;;;0.10;76.90;;;;;;4996472;28;20012;-84
2023/02/12 05:36:31;;;;;;;;;;;0.20;76.20;;;;;;4980998;28;19921;-84
2023/02/12 05:38:57;;;;;;;;;;;0.20;76.10;;;;;;5000262;28;19951;-84
2023/02/12 05:41:23;;;;;;;;;;;0.30;75.50;;;;;;4975733;28;20110;-83
2023/02/12 05:43:49;;;;;;;;;;;0.20;75.70;;;;;;4985873;28;20377;-82
2023/02/12 05:46:15;;;;;;;;;;;0.10;76.10;;;;;;4989791;28;20365;-81
2023/02/12 05:48:41;;;;;;;;;;;0.20;75.90;;;;;;4995800;28;19983;-81
2023/02/12 05:51:08;;;;;;;;;;;0.10;76.20;;;;;;4995189;28;19915;-82
2023/02/12 05:53:34;;;;;;;;;;;0.20;75.70;;;;;;4998078;28;20084;-81
2023/02/12 05:56:07;;;;;;;;;;;0.10;75.80;;;;;;4993328;28;19917;-80
2023/02/12 05:58:33;;;;;;;;;;;0.30;75.40;;;;;;4996985;28;19964;-81
2023/02/12 06:00:58;;;;;;;;;;;0.10;76.40;;;;;;4994595;28;20015;-81
2023/02/12 06:03:24;;;;;;;;;;;0.00;76.60;;;;;;4995143;28;19914;-81
2023/02/12 06:05:50;;;;;;;;;;;-0.10;77.00;;;;;;4995267;28;19917;-81
2023/02/12 06:08:16;;;;;;;;;;;0.00;77.20;;;;;;4992865;28;19956;-81
2023/02/12 06:10:41;;;;;;;;;;;-0.20;77.60;;;;;;4996973;28;19917;-80
2023/02/12 06:13:07;;;;;;;;;;;-0.10;77.90;;;;;;4991301;28;20741;-81
2023/02/12 06:15:35;;;;;;;;;;;-0.10;78.20;;;;;;4990643;28;19988;-82
2023/02/12 06:18:00;;;;;;;;;;;-0.10;78.20;;;;;;4994686;28;19940;-83
2023/02/12 06:20:26;;;;;;;;;;;0.00;77.90;;;;;;4999680;28;19909;-81
2023/02/12 06:22:51;;;;;;;;;;;-0.30;78.70;;;;;;4992045;28;20577;-82
2023/02/12 06:25:17;;;;;;;;;;;-0.30;79.40;;;;;;4989668;28;19924;-81
2023/02/12 06:27:43;;;;;;;;;;;-0.30;79.20;;;;;;5001081;28;20696;-79
2023/02/12 06:30:09;;;;;;;;;;;-0.30;79.00;;;;;;4997284;28;19916;-83
2023/02/12 06:32:34;;;;;;;;;;;-0.30;79.10;;;;;;5000448;28;19920;-82
2023/02/12 06:35:00;;;;;;;;;;;-0.30;79.10;;;;;;4990367;28;19940;-81
2023/02/12 06:37:25;;;;;;;;;;;-0.40;79.90;;;;;;5002146;28;19928;-80
2023/02/12 06:39:51;;;;;;;;;;;-0.30;78.60;;;;;;4980290;28;20010;-81
2023/02/12 06:42:16;;;;;;;;;;;-0.10;77.60;;;;;;4996504;28;19917;-82
2023/02/12 06:44:42;;;;;;;;;;;0.00;76.80;;;;;;4990967;28;20351;-81
2023/02/12 06:47:07;;;;;;;;;;;-0.10;76.90;;;;;;4995781;28;19913;-82
2023/02/12 06:49:33;;;;;;;;;;;-0.10;77.50;;;;;;4984227;28;19980;-80
2023/02/12 06:51:59;;;;;;;;;;;-0.30;77.80;;;;;;4995961;28;19914;-82
2023/02/12 06:54:24;;;;;;;;;;;-0.30;77.80;;;;;;5000799;28;19921;-80
2023/02/12 06:56:50;;;;;;;;;;;-0.20;77.40;;;;;;4977495;28;19921;-84
2023/02/12 06:59:16;;;;;;;;;;;-0.10;76.80;;;;;;4997555;28;19967;-80
2023/02/12 07:01:42;;;;;;;;;;;0.00;76.60;;;;;;4993729;28;19922;-81
2023/02/12 07:04:07;;;;;;;;;;;0.00;76.60;;;;;;4997345;28;19917;-79
2023/02/12 07:06:33;;;;;;;;;;;0.00;76.60;;;;;;4990452;28;19921;-77
2023/02/12 07:08:59;;;;;;;;;;;0.00;76.90;;;;;;4993861;28;20392;-80
2023/02/12 07:11:26;;;;;;;;;;;0.00;76.80;;;;;;4997371;28;19913;-79
2023/02/12 07:13:51;;;;;;;;;;;0.10;76.50;;;;;;4995337;28;19921;-77
2023/02/12 07:16:17;;;;;;;;;;;0.40;75.90;;;;;;4995009;28;20502;-76
2023/02/12 07:18:43;;;;;;;;;;;0.40;75.80;;;;;;4991998;28;20629;-76
2023/02/12 07:21:10;;;;;;;;;;;0.40;75.60;;;;;;4998081;28;19913;-80
2023/02/12 07:23:35;;;;;;;;;;;0.60;75.00;;;;;;4995804;28;19913;-77
2023/02/12 07:26:06;;;;;;;;;;;1.00;74.20;;;;;;4996433;28;19944;-76
2023/02/12 07:28:32;;;;;;;;;;;1.80;71.50;;;;;;4997334;28;19953;-77
2023/02/12 07:30:58;;;;;;;;;;;2.30;69.50;;;;;;4991188;28;19929;-77
2023/02/12 07:33:24;;;;;;;;;;;2.60;68.40;;;;;;4993656;28;19921;-78
2023/02/12 07:35:49;;;;;;;;;;;3.00;67.20;;;;;;4994683;28;19920;-78
2023/02/12 07:38:15;;;;;;;;;;;3.00;66.70;;;;;;5001180;28;19913;-76
2023/02/12 07:40:40;;;;;;;;;;;3.20;66.70;;;;;;4972360;28;19913;-79
2023/02/12 07:43:06;;;;;;;;;;;3.30;66.20;;;;;;4997901;28;19909;-77
2023/02/12 07:45:32;;;;;;;;;;;3.30;65.70;;;;;;4993136;28;20083;-77
2023/02/12 07:47:57;;;;;;;;;;;3.30;66.50;;;;;;5001295;28;19948;-80
2023/02/12 07:50:23;;;;;;;;;;;3.50;65.40;;;;;;4998621;28;19960;-79
2023/02/12 07:52:50;;;;;;;;;;;3.60;65.10;;;;;;5000663;28;19921;-80
2023/02/12 07:55:15;;;;;;;;;;;3.70;65.20;;;;;;4997989;28;19919;-78
2023/02/12 07:57:41;;;;;;;;;;;3.80;64.70;;;;;;4998906;28;19913;-78
2023/02/12 08:00:07;;;;;;;;;;;3.90;64.30;;;;;;4977556;28;19967;-81
2023/02/12 08:02:33;;;;;;;;;;;4.10;64.50;;;;;;4993837;28;19914;-78
2023/02/12 08:04:59;;;;;;;;;;;4.30;63.50;;;;;;4999443;28;19964;-80
2023/02/12 08:07:24;;;;;;;;;;;4.40;62.90;;;;;;4996568;28;19917;-79
2023/02/12 08:09:50;;;;;;;;;;;4.60;63.40;;;;;;4988662;28;20694;-80
2023/02/12 08:12:16;;;;;;;;;;;4.70;63.10;;;;;;5002797;28;20031;-80
2023/02/12 08:14:42;;;;;;;;;;;4.80;62.50;;;;;;5003715;28;19924;-78
2023/02/12 08:17:07;;;;;;;;;;;4.90;62.90;;;;;;5006187;28;19909;-81
2023/02/12 08:19:33;;;;;;;;;;;5.00;62.50;;;;;;4995975;28;20014;-78
2023/02/12 08:22:01;;;;;;;;;;;5.20;62.40;;;;;;4981822;28;19980;-78
2023/02/12 08:24:27;;;;;;;;;;;5.40;62.40;;;;;;4999565;28;19917;-78
2023/02/12 08:26:53;;;;;;;;;;;5.40;61.10;;;;;;4991243;28;19987;-78
2023/02/12 08:29:20;;;;;;;;;;;5.50;61.00;;;;;;4999744;28;19997;-78
2023/02/12 08:31:47;;;;;;;;;;;5.50;60.60;;;;;;4988205;28;19964;-77
2023/02/12 08:34:19;;;;;;;;;;;5.60;61.20;;;;;;5005363;28;20009;-78
2023/02/12 08:36:46;;;;;;;;;;;5.70;60.50;;;;;;4992520;28;20599;-78
2023/02/12 08:39:12;;;;;;;;;;;5.70;61.10;;;;;;4996806;28;19920;-78
2023/02/12 08:41:38;;;;;;;;;;;5.90;60.90;;;;;;5003365;28;19913;-78
2023/02/12 08:44:04;;;;;;;;;;;5.80;60.30;;;;;;4996940;28;20754;-77
2023/02/12 08:46:32;;;;;;;;;;;5.90;60.40;;;;;;4987660;28;19961;-79
2023/02/12 08:49:00;;;;;;;;;;;6.20;60.70;;;;;;4997980;28;19960;-77
2023/02/12 08:51:27;;;;;;;;;;;6.40;60.10;;;;;;4978700;28;19992;-78
2023/02/12 08:53:56;;;;;;;;;;;6.30;59.40;;;;;;5005196;28;19913;-77
2023/02/12 08:56:22;;;;;;;;;;;6.40;59.10;;;;;;4998637;28;19915;-78
2023/02/12 08:58:48;;;;;;;;;;;6.60;58.90;;;;;;4995869;28;19913;-78
2023/02/12 09:01:18;;;;;;;;;;;6.70;59.60;;;;;;4991626;28;20489;-78
2023/02/12 09:03:44;;;;;;;;;;;6.80;58.70;;;;;;4994038;28;20059;-78
2023/02/12 09:06:09;;;;;;;;;;;6.90;58.60;;;;;;4996508;28;19977;-78
2023/02/12 09:08:36;;;;;;;;;;;7.00;59.10;;;;;;4994245;28;20484;-78
2023/02/12 09:11:11;;;;;;;;;;;7.00;57.70;;;;;;4990021;28;19910;-78
2023/02/12 09:13:38;;;;;;;;;;;7.10;57.90;;;;;;4996199;28;19913;-78
2023/02/12 09:16:04;;;;;;;;;;;7.20;58.40;;;;;;5000627;28;19914;-79
2023/02/12 09:18:30;;;;;;;;;;;7.20;57.90;;;;;;5000718;28;19920;-78
2023/02/12 09:21:00;;;;;;;;;;;7.40;57.80;;;;;;5003093;28;19921;-78
2023/02/12 09:23:25;;;;;;;;;;;7.50;58.10;;;;;;4994882;28;19917;-78
2023/02/12 09:25:51;;;;;;;;;;;7.50;56.60;;;;;;4992868;28;20724;-78
2023/02/12 09:28:17;;;;;;;;;;;7.50;57.00;;;;;;4996795;28;20337;-79
2023/02/12 09:30:42;;;;;;;;;;;7.70;58.10;;;;;;4986361;28;20317;-78
2023/02/12 09:33:08;;;;;;;;;;;7.80;57.80;;;;;;5002424;28;19921;-78
2023/02/12 09:35:34;;;;;;;;;;;7.90;57.20;;;;;;4990398;28;19972;-78
2023/02/12 09:38:00;;;;;;;;;;;8.10;56.20;;;;;;4982408;28;19909;-80
2023/02/12 09:40:30;;;;;;;;;;;8.20;57.90;;;;;;5003580;28;20529;-78
2023/02/12 09:43:05;;;;;;;;;;;8.00;56.00;;;;;;4986043;28;20076;-79
2023/02/12 09:45:34;;;;;;;;;;;7.90;55.70;;;;;;4988139;28;19920;-78
2023/02/12 09:47:59;;;;;;;;;;;7.80;56.60;;;;;;4995080;28;19956;-78
2023/02/12 09:50:28;;;;;;;;;;;7.60;57.00;;;;;;4991643;28;19910;-78
2023/02/12 09:53:00;;;;;;;;;;;7.70;57.60;;;;;;4998729;28;19913;-82
2023/02/12 09:55:30;;;;;;;;;;;7.80;56.90;;;;;;5001140;28;20377;-77
2023/02/12 09:57:56;;;;;;;;;;;7.90;57.50;;;;;;4989472;28;20349;-77
2023/02/12 10:00:27;;;;;;;;;;;8.00;56.30;;;;;;5001525;28;19925;-83
2023/02/12 10:02:53;;;;;;;;;;;8.10;56.00;;;;;;4976786;28;19914;-86
2023/02/12 10:05:31;;;;;;;;;;;8.10;55.60;;;;;;4993353;28;19910;-82
2023/02/12 10:08:15;;;;;;;;;;;8.00;55.90;;;;;;4976723;28;19917;-76
2023/02/12 10:10:56;;;;;;;;;;;8.20;55.70;;;;;;4991741;28;20381;-83
2023/02/12 10:13:24;;;;;;;;;;;8.40;57.00;;;;;;5003955;28;20433;-81
2023/02/12 10:15:53;;;;;;;;;;;8.50;56.30;;;;;;4983571;28;20037;-77
2023/02/12 10:18:37;;;;;;;;;;;8.50;55.70;;;;;;4991568;28;19952;-77
2023/02/12 10:21:22;;;;;;;;;;;8.70;56.00;;;;;;4997047;28;19916;-78
2023/02/12 10:24:06;;;;;;;;;;;8.70;54.80;;;;;;4995818;28;20353;-81
2023/02/12 10:26:34;;;;;;;;;;;8.90;53.80;;;;;;5000802;28;19928;-80
2023/02/12 10:29:18;;;;;;;;;;;8.90;53.60;;;;;;5000353;28;19917;-79
2023/02/12 10:31:45;;;;;;;;;;;9.00;55.60;;;;;;5005242;28;19913;-80
2023/02/12 10:34:20;;;;;;;;;;;9.20;54.60;;;;;;4987930;28;19979;-81
2023/02/12 10:36:47;;;;;;;;;;;9.30;54.50;;;;;;4989261;28;19914;-79
2023/02/12 10:39:20;;;;;;;;;;;9.30;53.60;;;;;;4995813;28;19917;-79
2023/02/12 10:41:48;;;;;;;;;;;9.20;52.70;;;;;;4997056;28;19910;-79
2023/02/12 10:44:14;;;;;;;;;;;9.20;52.90;;;;;;4993904;28;19912;-84
2023/02/12 10:46:40;;;;;;;;;;;9.20;52.20;;;;;;4990919;28;19913;-78
2023/02/12 10:49:07;;;;;;;;;;;9.30;52.10;;;;;;4998284;28;19996;-83
2023/02/12 10:51:51;;;;;;;;;;;9.40;52.20;;;;;;5002551;28;19913;-76
2023/02/12 10:54:30;;;;;;;;;;;9.50;51.30;;;;;;4998670;28;19924;-80
2023/02/12 10:56:56;;;;;;;;;;;9.40;51.20;;;;;;4993022;28;20411;-80
2023/02/12 10:59:23;;;;;;;;;;;9.30;51.90;;;;;;4999731;28;19996;-79
2023/02/12 11:01:48;;;;;;;;;;;9.50;52.40;;;;;;4996302;28;19921;-79
2023/02/12 11:04:25;;;;;;;;;;;9.60;52.80;;;;;;4988450;28;19924;-80
2023/02/12 11:07:02;;;;;;;;;;;9.50;52.90;;;;;;5001329;28;19996;-79
2023/02/12 11:09:30;;;;;;;;;;;9.50;52.70;;;;;;4997333;28;19910;-79
2023/02/12 11:11:56;;;;;;;;;;;9.60;54.40;;;;;;4995539;28;20365;-79
2023/02/12 11:14:22;;;;;;;;;;;9.70;53.30;;;;;;4999582;28;19917;-80
2023/02/12 11:17:06;;;;;;;;;;;9.70;52.50;;;;;;4996429;28;19924;-80
2023/02/12 11:19:33;;;;;;;;;;;9.90;55.50;;;;;;5001729;28;19913;-80
2023/02/12 11:22:09;;;;;;;;;;;9.70;52.50;;;;;;5000974;28;19920;-79
2023/02/12 11:24:37;;;;;;;;;;;9.90;53.90;;;;;;5001818;28;20592;-79
2023/02/12 11:27:19;;;;;;;;;;;9.80;52.30;;;;;;5004463;28;19914;-82
2023/02/12 11:29:47;;;;;;;;;;;9.90;51.40;;;;;;4999619;28;19913;-79
2023/02/12 11:32:18;;;;;;;;;;;10.00;52.70;;;;;;5001566;28;19936;-79
2023/02/12 11:34:43;;;;;;;;;;;10.10;52.70;;;;;;4995468;28;19921;-79
2023/02/12 11:37:34;;;;;;;;;;;10.00;50.90;;;;;;4993928;28;19964;-79
2023/02/12 11:40:00;;;;;;;;;;;10.00;51.10;;;;;;4988339;28;20022;-79
2023/02/12 11:42:31;;;;;;;;;;;10.00;52.10;;;;;;4999484;28;19945;-79
2023/02/12 11:44:58;;;;;;;;;;;10.00;50.00;;;;;;4999109;28;19927;-79
2023/02/12 11:47:32;;;;;;;;;;;10.30;53.40;;;;;;4994662;28;20526;-79
2023/02/12 11:50:07;;;;;;;;;;;10.30;49.30;;;;;;5000491;28;20262;-79
2023/02/12 11:52:34;;;;;;;;;;;10.40;49.50;;;;;;4992474;28;19956;-79
2023/02/12 11:55:03;;;;;;;;;;;10.20;50.30;;;;;;4998590;28;20337;-79
2023/02/12 11:57:34;;;;;;;;;;;10.30;45.00;;;;;;4999846;28;20599;-79
2023/02/12 12:00:01;;;;;;;;;;;10.30;47.80;;;;;;4998173;28;19917;-79
2023/02/12 12:02:32;;;;;;;;;;;10.20;46.10;;;;;;5000710;28;20373;-79
2023/02/12 12:05:04;;;;;;;;;;;10.40;46.40;;;;;;4971590;28;19988;-80
2023/02/12 12:07:32;;;;;;;;;;;10.20;46.30;;;;;;5000316;28;19914;-79
2023/02/12 12:10:00;;;;;;;;;;;10.40;43.60;;;;;;4990787;28;19941;-79
2023/02/12 12:12:47;;;;;;;;;;;10.10;45.90;;;;;;4995605;28;19936;-78
2023/02/12 12:21:19;;;;;;;;;;;10.30;51.90;;;;;;4987591;28;19920;-80
2023/02/12 12:23:50;;;;;;;;;;;10.50;49.30;;;;;;4985199;28;20652;-82
2023/02/12 12:26:33;;;;;;;;;;;10.40;47.80;;;;;;4994937;28;19924;-83
2023/02/12 12:28:58;;;;;;;;;;;10.30;51.60;;;;;;4997442;28;19917;-79
2023/02/12 12:31:38;;;;;;;;;;;10.40;48.90;;;;;;4996625;28;19913;-81
2023/02/12 12:34:04;;;;;;;;;;;10.40;51.70;;;;;;5000638;28;19911;-81
2023/02/12 12:36:49;;;;;;;;;;;10.30;57.00;;;;;;4996776;28;20451;-80
2023/02/12 12:39:40;;;;;;;;;;;10.80;55.80;;;;;;4990204;28;20355;-80
2023/02/12 12:42:06;;;;;;;;;;;10.90;55.00;;;;;;4987825;28;19921;-78
2023/02/12 12:44:32;;;;;;;;;;;10.90;58.50;;;;;;4999420;28;20372;-78
2023/02/12 12:47:11;;;;;;;;;;;11.00;56.60;;;;;;4992327;28;20443;-79
2023/02/12 12:49:37;;;;;;;;;;;10.80;61.50;;;;;;4999694;28;19910;-79
2023/02/12 12:52:06;;;;;;;;;;;10.70;63.30;;;;;;4996891;28;19917;-79
2023/02/12 12:54:43;;;;;;;;;;;11.00;59.40;;;;;;5000159;28;19968;-79
2023/02/12 12:57:38;;;;;;;;;;;10.50;58.90;;;;;;4998966;28;19917;-79
2023/02/12 13:00:23;;;;;;;;;;;10.50;63.20;;;;;;5001777;28;19910;-79
2023/02/12 13:03:07;;;;;;;;;;;11.00;60.80;;;;;;5003683;28;19913;-79
2023/02/12 13:05:35;;;;;;;;;;;11.10;60.40;;;;;;5004125;28;19909;-79
2023/02/12 13:08:10;;;;;;;;;;;11.20;56.30;;;;;;4997740;28;20051;-79
2023/02/12 13:10:43;;;;;;;;;;;11.20;58.40;;;;;;4984902;28;19945;-79
2023/02/12 13:13:08;;;;;;;;;;;11.20;60.00;;;;;;5005554;28;19913;-79
2023/02/12 13:15:37;;;;;;;;;;;11.10;55.70;;;;;;4978934;28;19941;-78
2023/02/12 13:18:16;;;;;;;;;;;11.10;57.20;;;;;;5000561;28;19920;-79
2023/02/12 13:20:59;;;;;;;;;;;11.30;56.80;;;;;;4995085;28;19909;-79
2023/02/12 13:23:31;;;;;;;;;;;11.50;59.40;;;;;;4994250;28;19913;-79
2023/02/12 13:26:09;;;;;;;;;;;10.90;55.40;;;;;;4974945;28;19981;-78
2023/02/12 13:28:35;;;;;;;;;;;10.70;58.50;;;;;;4979001;28;19914;-78
2023/02/12 13:31:03;;;;;;;;;;;10.90;62.40;;;;;;4999813;28;19961;-79
2023/02/12 13:33:37;;;;;;;;;;;10.80;63.30;;;;;;5003603;28;20040;-78
2023/02/12 13:36:04;;;;;;;;;;;10.90;62.30;;;;;;5002904;28;19921;-79
2023/02/12 13:38:33;;;;;;;;;;;11.10;61.00;;;;;;5003556;28;19910;-79
2023/02/12 13:41:01;;;;;;;;;;;11.10;58.60;;;;;;5003297;28;19931;-79
2023/02/12 13:43:39;;;;;;;;;;;11.10;57.40;;;;;;5003740;28;20008;-79
2023/02/12 13:46:07;;;;;;;;;;;11.40;50.80;;;;;;4993557;28;20836;-79
2023/02/12 13:48:39;;;;;;;;;;;11.10;53.50;;;;;;5002587;28;19917;-79
2023/02/12 13:51:07;;;;;;;;;;;11.00;49.40;;;;;;4990127;28;19924;-79
2023/02/12 13:53:44;;;;;;;;;;;11.00;49.10;;;;;;4991820;28;19971;-78
2023/02/12 13:56:28;;;;;;;;;;;10.70;52.60;;;;;;5001236;28;19917;-79
2023/02/12 13:58:59;;;;;;;;;;;10.60;52.80;;;;;;4998194;28;19916;-79
2023/02/12 14:01:45;;;;;;;;;;;10.50;54.40;;;;;;5002116;28;19921;-79
2023/02/12 14:04:17;;;;;;;;;;;10.90;53.60;;;;;;4995473;28;19925;-79
2023/02/12 14:06:53;;;;;;;;;;;11.00;50.40;;;;;;5000269;28;19917;-79
2023/02/12 14:09:28;;;;;;;;;;;11.00;53.60;;;;;;4997838;28;19917;-79
2023/02/12 14:11:54;;;;;;;;;;;11.00;56.70;;;;;;4994701;28;20647;-79
2023/02/12 14:14:27;;;;;;;;;;;11.00;56.10;;;;;;4995540;28;19941;-79
2023/02/12 14:16:53;;;;;;;;;;;10.90;55.50;;;;;;4990970;28;19921;-79
2023/02/12 14:19:38;;;;;;;;;;;10.60;55.30;;;;;;5001466;28;19917;-79
2023/02/12 14:22:33;;;;;;;;;;;10.50;55.70;;;;;;4998138;28;20699;-79
2023/02/12 14:25:19;;;;;;;;;;;10.70;55.30;;;;;;4994059;28;20476;-79
2023/02/12 14:27:46;;;;;;;;;;;10.80;55.90;;;;;;4980813;28;20397;-79
2023/02/12 14:30:11;;;;;;;;;;;10.70;54.00;;;;;;5001885;28;20293;-79
2023/02/12 14:32:54;;;;;;;;;;;10.80;53.30;;;;;;4979945;28;19910;-79
2023/02/12 14:35:25;;;;;;;;;;;10.40;53.00;;;;;;5000005;28;19914;-79
2023/02/12 14:38:01;;;;;;;;;;;10.50;53.20;;;;;;4996786;28;19916;-79
2023/02/12 14:40:30;;;;;;;;;;;10.60;53.10;;;;;;4997486;28;19909;-79
2023/02/12 14:42:56;;;;;;;;;;;10.40;55.70;;;;;;4999556;28;19913;-79
2023/02/12 14:45:33;;;;;;;;;;;10.60;54.20;;;;;;5000763;28;19909;-79
2023/02/12 14:47:58;;;;;;;;;;;10.40;55.10;;;;;;4997296;28;19909;-79